createdAt,value
2019-01-31T00:00:14.749Z,55.11
2019-01-31T00:01:10.041Z,57.95
2019-01-31T00:02:04.563Z,60.31
2019-01-31T00:02:53.365Z,60.37
2019-01-31T00:03:30.316Z,59.93
2019-01-31T00:04:30.745Z,58.63
2019-01-31T00:05:23.521Z,58.02
2019-01-31T00:06:06.664Z,56.89
2019-01-31T00:07:04.086Z,55.59
2019-01-31T00:08:07.516Z,55.25
2019-01-31T00:08:56.088Z,52.96
2019-01-31T00:09:41.900Z,51.58
2019-01-31T00:10:49.944Z,51.34
2019-01-31T00:11:35.675Z,51.30
2019-01-31T00:12:29.348Z,52.30
2019-01-31T00:13:24.452Z,52.83
2019-01-31T00:14:16.469Z,53.96
2019-01-31T00:14:58.995Z,55.16
2019-01-31T00:16:04.223Z,56.45
2019-01-31T00:17:01.963Z,58.88
2019-01-31T00:17:48.393Z,60.97
2019-01-31T00:18:25.321Z,61.09
2019-01-31T00:19:32.349Z,60.13
2019-01-31T00:20:16.279Z,60.18
2019-01-31T00:21:01.986Z,58.47
2019-01-31T00:21:47.694Z,57.53
2019-01-31T00:22:55.550Z,56.60
2019-01-31T00:23:40.937Z,56.05
2019-01-31T00:24:26.631Z,54.71
2019-01-31T00:25:20.138Z,53.16
2019-01-31T00:26:25.496Z,51.75
2019-01-31T00:27:20.415Z,51.27
2019-01-31T00:28:13.428Z,51.73
2019-01-31T00:29:01.970Z,52.52
2019-01-31T00:29:41.367Z,53.41
2019-01-31T00:30:49.489Z,54.44
2019-01-31T00:32:03.983Z,54.25
2019-01-31T00:32:46.315Z,55.09
2019-01-31T00:33:29.291Z,57.16
2019-01-31T00:34:32.018Z,59.22
2019-01-31T00:35:32.791Z,61.56
2019-01-31T00:36:33.701Z,61.89
2019-01-31T00:37:31.945Z,60.88
2019-01-31T00:38:17.094Z,59.66
2019-01-31T00:39:10.937Z,58.16
2019-01-31T00:40:19.216Z,57.09
2019-01-31T00:41:14.208Z,56.21
2019-01-31T00:41:51.097Z,54.90
2019-01-31T00:42:51.678Z,53.14
2019-01-31T00:43:46.456Z,51.44
2019-01-31T00:44:34.965Z,51.08
2019-01-31T00:45:18.047Z,51.27
2019-01-31T00:46:17.129Z,51.97
2019-01-31T00:47:02.870Z,52.48
2019-01-31T00:48:01.929Z,53.58
2019-01-31T00:49:07.716Z,54.19
2019-01-31T00:49:47.258Z,54.84
2019-01-31T00:50:38.808Z,56.86
2019-01-31T00:51:35.070Z,57.48
2019-01-31T00:52:14.732Z,59.63
2019-01-31T00:53:12.252Z,61.59
2019-01-31T00:54:09.952Z,62.40
2019-01-31T00:54:52.881Z,61.83
2019-01-31T00:55:35.314Z,60.52
2019-01-31T00:56:34.631Z,59.24
2019-01-31T00:57:14.463Z,58.52
2019-01-31T00:58:18.677Z,57.06
2019-01-31T00:59:22.815Z,56.97
2019-01-31T01:00:17.831Z,55.64
2019-01-31T01:01:12.612Z,54.88
2019-01-31T01:01:54.999Z,53.13
2019-01-31T01:02:40.644Z,51.81
2019-01-31T01:03:29.339Z,51.36
2019-01-31T01:04:31.806Z,51.42
2019-01-31T01:05:28.292Z,51.81
2019-01-31T01:06:19.981Z,52.72
2019-01-31T01:07:17.082Z,53.58
2019-01-31T01:08:02.503Z,54.50
2019-01-31T01:08:39.345Z,55.81
2019-01-31T01:09:28.620Z,57.19
2019-01-31T01:10:28.184Z,57.49
2019-01-31T01:11:25.950Z,58.42
2019-01-31T01:12:34.201Z,60.94
2019-01-31T01:13:22.772Z,63.23
2019-01-31T01:14:17.294Z,63.18
2019-01-31T01:14:57.265Z,62.39
2019-01-31T01:15:36.734Z,60.85
2019-01-31T01:16:22.219Z,59.75
2019-01-31T01:17:11.197Z,58.78
2019-01-31T01:17:48.122Z,58.01
2019-01-31T01:18:37.130Z,56.71
2019-01-31T01:19:41.020Z,56.31
2019-01-31T01:20:23.926Z,55.79
2019-01-31T01:21:38.052Z,54.83
2019-01-31T01:22:23.257Z,53.27
2019-01-31T01:23:11.722Z,52.43
2019-01-31T01:24:21.727Z,52.36
2019-01-31T01:25:36.211Z,52.69
2019-01-31T01:26:21.990Z,53.56
2019-01-31T01:27:10.788Z,55.24
2019-01-31T01:27:53.446Z,56.06
2019-01-31T01:28:47.768Z,57.55
2019-01-31T01:29:30.793Z,58.14
2019-01-31T01:30:34.611Z,59.12
2019-01-31T01:31:26.347Z,61.97
2019-01-31T01:32:23.447Z,63.70
2019-01-31T01:33:18.444Z,64.17
2019-01-31T01:34:15.166Z,63.59
2019-01-31T01:35:18.441Z,62.29
2019-01-31T01:35:58.574Z,61.49
2019-01-31T01:36:59.440Z,59.67
2019-01-31T01:37:41.879Z,59.03
2019-01-31T01:38:51.678Z,57.67
2019-01-31T01:39:31.939Z,57.23
2019-01-31T01:40:42.195Z,55.85
2019-01-31T01:41:39.773Z,55.57
2019-01-31T01:42:40.391Z,54.84
2019-01-31T01:43:41.035Z,53.10
2019-01-31T01:44:24.075Z,51.83
2019-01-31T01:45:17.258Z,51.96
2019-01-31T01:46:11.966Z,52.37
2019-01-31T01:47:13.803Z,52.99
2019-01-31T01:47:53.473Z,53.84
2019-01-31T01:48:33.434Z,55.15
2019-01-31T01:49:21.986Z,56.13
2019-01-31T01:50:18.256Z,56.76
2019-01-31T01:51:24.786Z,57.26
2019-01-31T01:52:24.288Z,58.00
2019-01-31T01:53:19.298Z,59.55
2019-01-31T01:54:19.885Z,62.80
2019-01-31T01:55:11.370Z,64.75
2019-01-31T01:56:10.537Z,64.48
2019-01-31T01:57:08.539Z,63.56
2019-01-31T01:58:03.352Z,62.67
2019-01-31T01:59:01.874Z,61.33
2019-01-31T02:00:02.818Z,60.24
2019-01-31T02:00:56.030Z,59.19
2019-01-31T02:02:04.282Z,58.22
2019-01-31T02:03:09.747Z,57.75
2019-01-31T02:03:58.698Z,56.92
2019-01-31T02:05:04.906Z,55.91
2019-01-31T02:05:53.713Z,55.51
2019-01-31T02:06:57.517Z,54.62
2019-01-31T02:07:40.163Z,53.01
2019-01-31T02:08:22.937Z,52.29
2019-01-31T02:09:09.761Z,52.13
2019-01-31T02:10:08.922Z,52.32
2019-01-31T02:10:57.647Z,52.80
2019-01-31T02:11:57.226Z,53.66
2019-01-31T02:13:17.269Z,54.38
2019-01-31T02:13:59.855Z,55.13
2019-01-31T02:15:10.064Z,57.26
2019-01-31T02:15:58.790Z,57.86
2019-01-31T02:17:01.936Z,59.49
2019-01-31T02:17:47.290Z,61.20
2019-01-31T02:18:24.229Z,63.83
2019-01-31T02:19:07.228Z,64.23
2019-01-31T02:20:09.414Z,64.00
2019-01-31T02:20:57.734Z,63.57
2019-01-31T02:22:03.849Z,62.23
2019-01-31T02:23:04.879Z,61.22
2019-01-31T02:23:50.591Z,59.60
2019-01-31T02:24:44.951Z,58.33
2019-01-31T02:25:21.851Z,57.47
2019-01-31T02:26:30.559Z,56.42
2019-01-31T02:27:28.876Z,55.97
2019-01-31T02:28:17.465Z,55.15
2019-01-31T02:29:00.168Z,54.46
2019-01-31T02:29:48.231Z,53.15
2019-01-31T02:30:27.929Z,51.96
2019-01-31T02:31:23.158Z,51.82
2019-01-31T02:32:14.665Z,51.84
2019-01-31T02:33:01.176Z,52.38
2019-01-31T02:33:55.904Z,53.32
2019-01-31T02:34:41.916Z,53.96
2019-01-31T02:35:27.873Z,55.06
2019-01-31T02:36:22.668Z,55.97
2019-01-31T02:36:59.584Z,57.03
2019-01-31T02:37:54.399Z,58.74
2019-01-31T02:38:46.247Z,59.11
2019-01-31T02:39:43.164Z,60.60
2019-01-31T02:40:44.761Z,62.93
2019-01-31T02:41:21.644Z,63.98
2019-01-31T02:42:16.356Z,63.02
2019-01-31T02:43:19.897Z,62.40
2019-01-31T02:44:02.613Z,61.12
2019-01-31T02:44:47.835Z,59.48
2019-01-31T02:45:48.699Z,58.49
2019-01-31T02:46:42.874Z,57.75
2019-01-31T02:47:31.855Z,56.88
2019-01-31T02:48:27.238Z,55.96
2019-01-31T02:49:24.524Z,55.21
2019-01-31T02:50:20.693Z,54.73
2019-01-31T02:51:15.566Z,53.06
2019-01-31T02:52:04.250Z,51.82
2019-01-31T02:53:13.433Z,51.73
2019-01-31T02:53:55.976Z,52.02
2019-01-31T02:54:47.736Z,53.59
2019-01-31T02:55:39.129Z,54.13
2019-01-31T02:56:15.958Z,55.07
2019-01-31T02:57:04.970Z,56.37
2019-01-31T02:58:04.522Z,57.00
2019-01-31T02:58:53.087Z,57.82
2019-01-31T02:59:55.685Z,59.09
2019-01-31T03:00:50.387Z,60.62
2019-01-31T03:01:52.768Z,63.59
2019-01-31T03:02:32.468Z,64.20
2019-01-31T03:03:09.364Z,62.91
2019-01-31T03:04:07.627Z,61.81
2019-01-31T03:04:45.595Z,60.92
2019-01-31T03:05:34.395Z,59.71
2019-01-31T03:06:11.215Z,59.16
2019-01-31T03:07:24.333Z,58.09
2019-01-31T03:08:16.094Z,58.12
2019-01-31T03:09:31.933Z,57.25
2019-01-31T03:10:23.957Z,56.95
2019-01-31T03:11:18.646Z,55.82
2019-01-31T03:12:01.991Z,55.15
2019-01-31T03:13:09.008Z,54.51
2019-01-31T03:13:54.705Z,53.00
2019-01-31T03:14:31.826Z,52.36
2019-01-31T03:15:17.613Z,52.46
2019-01-31T03:16:06.206Z,52.86
2019-01-31T03:16:57.876Z,53.43
2019-01-31T03:18:15.992Z,54.02
2019-01-31T03:18:58.762Z,54.35
2019-01-31T03:19:44.504Z,56.43
2019-01-31T03:20:29.746Z,57.65
2019-01-31T03:21:49.350Z,58.56
2019-01-31T03:22:28.712Z,58.41
2019-01-31T03:23:08.402Z,61.13
2019-01-31T03:23:50.835Z,63.25
2019-01-31T03:24:54.700Z,64.33
2019-01-31T03:25:43.121Z,64.92
2019-01-31T03:26:20.023Z,63.83
2019-01-31T03:27:05.721Z,62.31
2019-01-31T03:28:00.775Z,61.33
2019-01-31T03:29:18.207Z,60.44
2019-01-31T03:30:10.195Z,59.97
2019-01-31T03:31:24.719Z,58.61
2019-01-31T03:32:31.923Z,58.06
2019-01-31T03:33:48.371Z,57.36
2019-01-31T03:34:33.952Z,56.64
2019-01-31T03:35:22.479Z,55.42
2019-01-31T03:36:08.468Z,54.71
2019-01-31T03:37:06.107Z,53.26
2019-01-31T03:37:45.542Z,52.12
2019-01-31T03:38:22.469Z,52.20
2019-01-31T03:39:17.194Z,52.51
2019-01-31T03:40:38.082Z,52.73
2019-01-31T03:41:23.324Z,53.34
2019-01-31T03:42:11.597Z,54.78
2019-01-31T03:43:09.372Z,55.82
2019-01-31T03:43:58.563Z,56.20
2019-01-31T03:44:38.242Z,57.79
2019-01-31T03:45:29.518Z,59.09
2019-01-31T03:46:38.200Z,60.02
2019-01-31T03:47:22.994Z,62.64
2019-01-31T03:47:59.882Z,63.09
2019-01-31T03:49:05.201Z,62.40
2019-01-31T03:49:42.070Z,62.09
2019-01-31T03:50:21.983Z,60.47
2019-01-31T03:51:04.582Z,59.53
2019-01-31T03:51:47.102Z,58.79
2019-01-31T03:52:46.480Z,57.97
2019-01-31T03:53:43.996Z,57.37
2019-01-31T03:54:37.321Z,56.71
2019-01-31T03:55:40.457Z,55.97
2019-01-31T03:56:46.122Z,55.43
2019-01-31T03:57:41.931Z,54.79
2019-01-31T03:58:30.650Z,53.08
2019-01-31T03:59:10.935Z,52.10
2019-01-31T03:59:44.971Z,52.01
2019-01-31T04:00:39.216Z,52.40
2019-01-31T04:01:47.746Z,52.61
2019-01-31T04:02:27.614Z,53.40
2019-01-31T04:03:04.505Z,54.96
2019-01-31T04:03:56.061Z,56.24
2019-01-31T04:04:53.454Z,56.77
2019-01-31T04:05:39.202Z,58.06
2019-01-31T04:06:15.021Z,59.49
2019-01-31T04:06:46.230Z,61.19
2019-01-31T04:07:17.400Z,62.73
2019-01-31T04:07:48.580Z,63.47
2019-01-31T04:08:19.780Z,63.57
2019-01-31T04:08:50.973Z,63.17
2019-01-31T04:09:22.140Z,62.52
2019-01-31T04:09:53.330Z,61.84
2019-01-31T04:10:24.719Z,61.09
2019-01-31T04:10:55.898Z,60.26
2019-01-31T04:11:27.072Z,59.52
2019-01-31T04:11:58.557Z,58.89
2019-01-31T04:12:29.760Z,58.21
2019-01-31T04:13:00.945Z,57.60
2019-01-31T04:13:32.528Z,57.03
2019-01-31T04:14:03.775Z,56.53
2019-01-31T04:14:34.965Z,56.04
2019-01-31T04:15:08.457Z,55.50
2019-01-31T04:15:39.677Z,55.07
2019-01-31T04:16:10.858Z,54.72
2019-01-31T04:16:43.046Z,54.07
2019-01-31T04:17:14.224Z,53.37
2019-01-31T04:17:45.413Z,53.00
2019-01-31T04:18:16.647Z,53.04
2019-01-31T04:18:47.808Z,53.29
2019-01-31T04:19:19.039Z,53.78
2019-01-31T04:19:50.196Z,54.32
2019-01-31T04:20:21.452Z,54.87
2019-01-31T04:20:52.619Z,55.52
2019-01-31T04:21:23.820Z,56.21
2019-01-31T04:21:55.017Z,57.02
2019-01-31T04:22:26.330Z,57.63
2019-01-31T04:22:57.508Z,58.32
2019-01-31T04:23:29.088Z,59.04
2019-01-31T04:24:00.246Z,59.82
2019-01-31T04:24:31.823Z,60.78
2019-01-31T04:25:03.428Z,61.97
2019-01-31T04:25:34.650Z,62.79
2019-01-31T04:26:07.714Z,62.88
2019-01-31T04:26:38.931Z,62.66
2019-01-31T04:27:10.107Z,62.02
2019-01-31T04:27:41.322Z,61.45
2019-01-31T04:28:12.483Z,60.70
2019-01-31T04:28:43.707Z,59.86
2019-01-31T04:29:14.888Z,59.01
2019-01-31T04:29:46.119Z,58.23
2019-01-31T04:30:17.383Z,57.54
2019-01-31T04:30:48.595Z,56.88
2019-01-31T04:31:19.814Z,56.38
2019-01-31T04:31:51.050Z,55.78
2019-01-31T04:32:22.280Z,55.25
2019-01-31T04:32:54.238Z,54.76
2019-01-31T04:33:25.484Z,53.94
2019-01-31T04:33:56.762Z,53.08
2019-01-31T04:34:27.984Z,52.71
2019-01-31T04:34:59.127Z,52.71
2019-01-31T04:35:30.345Z,53.10
2019-01-31T04:36:01.910Z,53.53
2019-01-31T04:36:33.129Z,54.15
2019-01-31T04:37:04.287Z,54.84
2019-01-31T04:37:35.503Z,55.65
2019-01-31T04:38:06.674Z,56.54
2019-01-31T04:38:37.883Z,57.47
2019-01-31T04:39:09.049Z,58.23
2019-01-31T04:39:40.251Z,58.94
2019-01-31T04:40:11.514Z,59.55
2019-01-31T04:40:42.715Z,60.52
2019-01-31T04:41:13.865Z,61.66
2019-01-31T04:41:46.083Z,62.56
2019-01-31T04:42:17.253Z,62.84
2019-01-31T04:42:48.495Z,62.52
2019-01-31T04:43:19.735Z,62.14
2019-01-31T04:43:50.931Z,61.45
2019-01-31T04:44:22.109Z,60.62
2019-01-31T04:44:53.348Z,59.98
2019-01-31T04:45:24.605Z,59.36
2019-01-31T04:45:55.879Z,58.79
2019-01-31T04:46:27.123Z,58.14
2019-01-31T04:46:58.780Z,57.67
2019-01-31T04:47:30.019Z,57.06
2019-01-31T04:48:01.304Z,56.56
2019-01-31T04:48:32.524Z,56.01
2019-01-31T04:49:03.686Z,55.47
2019-01-31T04:49:34.912Z,55.16
2019-01-31T04:50:10.871Z,54.77
2019-01-31T04:50:42.073Z,54.07
2019-01-31T04:51:13.224Z,53.34
2019-01-31T04:51:44.430Z,53.19
2019-01-31T04:52:15.600Z,53.24
2019-01-31T04:52:46.817Z,53.64
2019-01-31T04:53:17.972Z,54.16
2019-01-31T04:53:49.167Z,54.65
2019-01-31T04:54:20.344Z,55.24
2019-01-31T04:54:51.568Z,55.97
2019-01-31T04:55:22.799Z,56.64
2019-01-31T04:55:54.009Z,57.57
2019-01-31T04:56:25.159Z,58.23
2019-01-31T04:56:56.359Z,58.94
2019-01-31T04:57:27.529Z,59.77
2019-01-31T04:57:58.753Z,60.88
2019-01-31T04:58:29.901Z,62.06
2019-01-31T04:59:01.106Z,62.81
2019-01-31T04:59:32.311Z,62.89
2019-01-31T05:00:16.064Z,62.46
2019-01-31T05:00:47.239Z,62.23
2019-01-31T05:01:18.416Z,61.25
2019-01-31T05:01:49.600Z,60.49
2019-01-31T05:02:20.781Z,59.77
2019-01-31T05:02:51.966Z,59.04
2019-01-31T05:03:23.141Z,58.27
2019-01-31T05:03:54.348Z,57.63
2019-01-31T05:04:25.533Z,57.11
2019-01-31T05:04:56.688Z,56.50
2019-01-31T05:05:27.914Z,55.91
2019-01-31T05:05:59.107Z,55.40
2019-01-31T05:06:30.298Z,55.03
2019-01-31T05:07:01.762Z,54.60
2019-01-31T05:07:32.948Z,54.01
2019-01-31T05:08:04.188Z,53.52
2019-01-31T05:08:35.357Z,53.24
2019-01-31T05:09:06.585Z,53.35
2019-01-31T05:09:37.826Z,53.53
2019-01-31T05:10:11.606Z,53.82
2019-01-31T05:10:43.531Z,54.28
2019-01-31T05:11:14.847Z,54.93
2019-01-31T05:11:46.103Z,55.63
2019-01-31T05:12:17.400Z,56.17
2019-01-31T05:12:48.671Z,56.82
2019-01-31T05:13:19.904Z,57.41
2019-01-31T05:13:51.159Z,58.10
2019-01-31T05:14:22.356Z,58.70
2019-01-31T05:14:53.617Z,59.64
2019-01-31T05:15:24.807Z,60.76
2019-01-31T05:15:56.067Z,61.99
2019-01-31T05:16:27.318Z,62.46
2019-01-31T05:16:58.744Z,62.47
2019-01-31T05:17:29.934Z,62.23
2019-01-31T05:18:01.165Z,61.65
2019-01-31T05:18:32.358Z,60.88
2019-01-31T05:19:03.604Z,60.00
2019-01-31T05:19:34.775Z,59.17
2019-01-31T05:20:13.408Z,58.36
2019-01-31T05:20:44.609Z,57.72
2019-01-31T05:21:15.881Z,56.80
2019-01-31T05:21:47.061Z,56.04
2019-01-31T05:22:18.291Z,55.36
2019-01-31T05:22:49.483Z,54.78
2019-01-31T05:23:20.718Z,53.89
2019-01-31T05:23:51.915Z,53.00
2019-01-31T05:24:23.139Z,52.58
2019-01-31T05:24:55.368Z,52.59
2019-01-31T05:25:26.608Z,53.07
2019-01-31T05:25:57.817Z,53.57
2019-01-31T05:26:29.303Z,54.12
2019-01-31T05:27:00.542Z,54.65
2019-01-31T05:27:31.862Z,55.23
2019-01-31T05:28:03.112Z,55.97
2019-01-31T05:28:34.316Z,56.77
2019-01-31T05:29:05.512Z,57.43
2019-01-31T05:29:36.708Z,57.92
2019-01-31T05:30:14.036Z,58.65
2019-01-31T05:30:45.239Z,59.06
2019-01-31T05:31:16.446Z,60.10
2019-01-31T05:31:47.674Z,61.40
2019-01-31T05:32:18.935Z,62.32
2019-01-31T05:32:50.101Z,62.57
2019-01-31T05:33:21.276Z,62.23
2019-01-31T05:33:52.464Z,61.59
2019-01-31T05:34:23.658Z,60.78
2019-01-31T05:34:54.887Z,59.93
2019-01-31T05:35:26.046Z,59.29
2019-01-31T05:35:57.268Z,58.52
2019-01-31T05:36:28.433Z,57.80
2019-01-31T05:36:59.710Z,57.00
2019-01-31T05:37:30.876Z,56.33
2019-01-31T05:38:02.533Z,55.60
2019-01-31T05:38:33.695Z,55.01
2019-01-31T05:39:06.517Z,54.43
2019-01-31T05:39:37.673Z,53.41
2019-01-31T05:40:12.479Z,52.61
2019-01-31T05:40:54.398Z,52.17
2019-01-31T05:41:16.755Z,52.34
2019-01-31T05:41:47.913Z,52.70
2019-01-31T05:42:19.128Z,53.12
2019-01-31T05:42:50.279Z,53.64
2019-01-31T05:43:21.496Z,54.51
2019-01-31T05:43:52.662Z,55.11
2019-01-31T05:44:23.885Z,55.62
2019-01-31T05:44:55.047Z,56.25
2019-01-31T05:45:26.258Z,57.09
2019-01-31T05:45:57.424Z,58.10
2019-01-31T05:46:28.770Z,58.61
2019-01-31T05:46:59.920Z,59.22
2019-01-31T05:47:31.621Z,60.13
2019-01-31T05:48:02.792Z,61.35
2019-01-31T05:48:33.994Z,62.39
2019-01-31T05:49:05.187Z,62.79
2019-01-31T05:49:36.406Z,62.65
2019-01-31T05:50:11.278Z,61.72
2019-01-31T05:50:42.459Z,60.75
2019-01-31T05:51:13.655Z,59.59
2019-01-31T05:51:44.847Z,58.66
2019-01-31T05:52:16.063Z,57.82
2019-01-31T05:52:47.237Z,56.97
2019-01-31T05:53:18.434Z,56.07
2019-01-31T05:53:49.616Z,55.32
2019-01-31T05:54:20.789Z,54.61
2019-01-31T05:54:51.963Z,53.69
2019-01-31T05:55:23.158Z,52.80
2019-01-31T05:55:54.337Z,52.40
2019-01-31T05:56:25.532Z,52.31
2019-01-31T05:56:56.749Z,52.55
2019-01-31T05:57:27.925Z,52.83
2019-01-31T05:57:59.210Z,53.24
2019-01-31T05:58:30.399Z,53.66
2019-01-31T05:59:01.823Z,54.19
2019-01-31T05:59:33.010Z,54.85
2019-01-31T06:00:15.593Z,55.47
2019-01-31T06:00:46.899Z,55.91
2019-01-31T06:01:18.296Z,56.91
2019-01-31T06:01:49.557Z,57.59
2019-01-31T06:02:20.803Z,58.15
2019-01-31T06:02:52.063Z,58.59
2019-01-31T06:03:23.289Z,59.03
2019-01-31T06:03:54.544Z,59.60
2019-01-31T06:04:25.781Z,60.33
2019-01-31T06:04:57.014Z,61.41
2019-01-31T06:05:28.673Z,61.99
2019-01-31T06:05:59.827Z,62.09
2019-01-31T06:06:31.027Z,61.65
2019-01-31T06:07:10.920Z,61.02
2019-01-31T06:07:35.330Z,60.29
2019-01-31T06:08:06.521Z,59.40
2019-01-31T06:08:37.692Z,58.52
2019-01-31T06:09:08.891Z,57.71
2019-01-31T06:09:40.051Z,56.93
2019-01-31T06:10:11.757Z,56.19
2019-01-31T06:10:42.931Z,55.47
2019-01-31T06:11:14.115Z,54.72
2019-01-31T06:11:45.296Z,53.76
2019-01-31T06:12:16.477Z,52.88
2019-01-31T06:12:47.681Z,52.55
2019-01-31T06:13:18.871Z,52.48
2019-01-31T06:13:50.072Z,52.71
2019-01-31T06:14:21.258Z,53.14
2019-01-31T06:14:52.442Z,53.53
2019-01-31T06:15:23.653Z,54.00
2019-01-31T06:15:54.805Z,54.64
2019-01-31T06:16:26.044Z,55.19
2019-01-31T06:16:57.180Z,55.81
2019-01-31T06:17:28.808Z,56.43
2019-01-31T06:17:59.963Z,57.04
2019-01-31T06:18:31.639Z,57.73
2019-01-31T06:19:02.797Z,58.33
2019-01-31T06:19:34.023Z,58.95
2019-01-31T06:20:08.996Z,59.42
2019-01-31T06:20:40.199Z,60.13
2019-01-31T06:21:11.358Z,61.41
2019-01-31T06:21:42.586Z,61.96
2019-01-31T06:22:13.731Z,62.03
2019-01-31T06:22:44.941Z,61.68
2019-01-31T06:23:16.104Z,61.11
2019-01-31T06:23:47.317Z,60.32
2019-01-31T06:24:18.471Z,59.53
2019-01-31T06:24:49.698Z,58.71
2019-01-31T06:25:20.841Z,57.83
2019-01-31T06:25:52.073Z,56.99
2019-01-31T06:26:23.233Z,56.21
2019-01-31T06:26:54.439Z,55.60
2019-01-31T06:27:25.600Z,54.96
2019-01-31T06:27:56.799Z,54.29
2019-01-31T06:28:27.955Z,53.30
2019-01-31T06:28:59.519Z,52.61
2019-01-31T06:29:31.833Z,52.29
2019-01-31T06:30:08.243Z,52.36
2019-01-31T06:30:39.412Z,52.53
2019-01-31T06:31:10.664Z,53.08
2019-01-31T06:31:41.904Z,53.58
2019-01-31T06:32:13.140Z,54.14
2019-01-31T06:32:44.483Z,54.76
2019-01-31T06:33:15.736Z,55.33
2019-01-31T06:33:46.983Z,55.96
2019-01-31T06:34:18.225Z,56.60
2019-01-31T06:34:49.474Z,57.23
2019-01-31T06:35:20.728Z,57.87
2019-01-31T06:35:51.970Z,58.45
2019-01-31T06:36:23.300Z,58.93
2019-01-31T06:36:54.523Z,59.49
2019-01-31T06:37:25.684Z,60.35
2019-01-31T06:37:56.904Z,61.33
2019-01-31T06:38:28.063Z,61.90
2019-01-31T06:38:59.600Z,61.92
2019-01-31T06:39:30.749Z,61.62
2019-01-31T06:40:09.531Z,61.01
2019-01-31T06:40:40.721Z,60.31
2019-01-31T06:41:18.236Z,59.40
2019-01-31T06:41:45.112Z,58.62
2019-01-31T06:42:16.361Z,57.73
2019-01-31T06:42:47.822Z,57.02
2019-01-31T06:43:19.058Z,56.30
2019-01-31T06:43:50.319Z,55.58
2019-01-31T06:44:21.555Z,54.99
2019-01-31T06:44:52.815Z,54.45
2019-01-31T06:45:25.069Z,53.48
2019-01-31T06:45:56.469Z,52.79
2019-01-31T06:46:27.646Z,52.46
2019-01-31T06:46:59.408Z,52.55
2019-01-31T06:47:30.574Z,52.78
2019-01-31T06:48:05.032Z,53.12
2019-01-31T06:48:35.226Z,53.37
2019-01-31T06:49:06.436Z,54.02
2019-01-31T06:49:37.624Z,54.57
2019-01-31T06:50:08.766Z,55.18
2019-01-31T06:50:39.920Z,55.80
2019-01-31T06:51:11.108Z,56.38
2019-01-31T06:51:42.301Z,57.06
2019-01-31T06:52:13.445Z,57.70
2019-01-31T06:52:44.612Z,58.32
2019-01-31T06:53:15.757Z,59.00
2019-01-31T06:53:46.937Z,59.77
2019-01-31T06:54:18.115Z,60.73
2019-01-31T06:54:49.289Z,61.74
2019-01-31T06:55:20.467Z,62.25
2019-01-31T06:55:51.671Z,62.23
2019-01-31T06:56:22.831Z,61.77
2019-01-31T06:56:53.982Z,61.10
2019-01-31T06:57:25.166Z,60.33
2019-01-31T06:57:56.323Z,59.53
2019-01-31T06:58:27.495Z,58.65
2019-01-31T06:58:58.877Z,57.83
2019-01-31T06:59:30.042Z,57.15
2019-01-31T07:00:01.195Z,56.50
2019-01-31T07:00:32.368Z,55.76
2019-01-31T07:01:03.554Z,55.12
2019-01-31T07:01:34.698Z,54.54
2019-01-31T07:02:05.928Z,53.68
2019-01-31T07:02:37.076Z,52.88
2019-01-31T07:03:08.290Z,52.61
2019-01-31T07:03:39.478Z,52.62
2019-01-31T07:04:11.152Z,52.78
2019-01-31T07:04:42.347Z,53.08
2019-01-31T07:05:13.560Z,53.51
2019-01-31T07:05:44.732Z,54.20
2019-01-31T07:06:15.974Z,54.81
2019-01-31T07:06:47.118Z,55.44
2019-01-31T07:07:18.406Z,56.07
2019-01-31T07:07:49.671Z,56.72
2019-01-31T07:08:20.931Z,57.27
2019-01-31T07:08:52.187Z,57.87
2019-01-31T07:09:23.429Z,58.50
2019-01-31T07:09:54.785Z,59.05
2019-01-31T07:10:26.043Z,59.58
2019-01-31T07:10:57.290Z,60.58
2019-01-31T07:11:30.033Z,61.57
2019-01-31T07:12:02.000Z,62.10
2019-01-31T07:12:33.193Z,62.02
2019-01-31T07:13:04.357Z,61.61
2019-01-31T07:13:35.557Z,60.99
2019-01-31T07:14:06.734Z,60.21
2019-01-31T07:14:37.935Z,59.35
2019-01-31T07:15:10.709Z,58.60
2019-01-31T07:15:41.906Z,57.80
2019-01-31T07:16:13.086Z,57.07
2019-01-31T07:16:45.334Z,56.32
2019-01-31T07:17:18.354Z,55.54
2019-01-31T07:17:49.719Z,54.93
2019-01-31T07:18:20.934Z,54.27
2019-01-31T07:18:52.171Z,53.26
2019-01-31T07:19:23.376Z,52.45
2019-01-31T07:19:56.547Z,52.10
2019-01-31T07:20:27.680Z,52.12
2019-01-31T07:20:58.893Z,52.42
2019-01-31T07:21:30.073Z,52.74
2019-01-31T07:22:01.279Z,53.09
2019-01-31T07:22:32.466Z,53.62
2019-01-31T07:23:03.863Z,54.17
2019-01-31T07:23:35.057Z,54.71
2019-01-31T07:24:06.234Z,55.30
2019-01-31T07:24:37.416Z,55.95
2019-01-31T07:25:18.529Z,56.52
2019-01-31T07:25:49.798Z,57.04
2019-01-31T07:26:22.713Z,57.93
2019-01-31T07:26:54.011Z,58.64
2019-01-31T07:27:25.271Z,59.22
2019-01-31T07:27:56.427Z,60.00
2019-01-31T07:28:27.633Z,61.09
2019-01-31T07:28:59.151Z,61.82
2019-01-31T07:29:30.369Z,61.90
2019-01-31T07:30:01.639Z,61.58
2019-01-31T07:30:32.846Z,60.91
2019-01-31T07:31:04.103Z,60.17
2019-01-31T07:31:35.334Z,59.36
2019-01-31T07:32:06.512Z,58.58
2019-01-31T07:32:37.727Z,57.79
2019-01-31T07:33:08.884Z,56.96
2019-01-31T07:33:40.107Z,56.31
2019-01-31T07:34:11.277Z,55.62
2019-01-31T07:34:42.523Z,54.89
2019-01-31T07:35:13.943Z,53.90
2019-01-31T07:35:45.176Z,52.94
2019-01-31T07:36:16.407Z,52.48
2019-01-31T07:36:47.628Z,52.41
2019-01-31T07:37:18.795Z,52.56
2019-01-31T07:37:52.916Z,52.91
2019-01-31T07:38:23.073Z,53.28
2019-01-31T07:38:54.404Z,53.95
2019-01-31T07:39:25.655Z,54.56
2019-01-31T07:39:56.855Z,55.16
2019-01-31T07:40:28.024Z,55.79
2019-01-31T07:40:59.391Z,56.48
2019-01-31T07:41:40.656Z,57.15
2019-01-31T07:42:03.748Z,57.65
2019-01-31T07:42:34.989Z,58.39
2019-01-31T07:43:06.224Z,58.90
2019-01-31T07:43:37.449Z,59.47
2019-01-31T07:44:08.691Z,60.27
2019-01-31T07:44:39.920Z,61.40
2019-01-31T07:45:21.526Z,61.96
2019-01-31T07:45:52.780Z,62.27
2019-01-31T07:46:24.026Z,61.56
2019-01-31T07:46:55.250Z,60.84
2019-01-31T07:47:26.402Z,59.90
2019-01-31T07:47:57.602Z,59.08
2019-01-31T07:48:28.781Z,58.28
2019-01-31T07:49:00.030Z,57.46
2019-01-31T07:49:31.186Z,56.56
2019-01-31T07:50:10.882Z,55.78
2019-01-31T07:50:42.041Z,55.29
2019-01-31T07:51:13.286Z,54.56
2019-01-31T07:51:44.459Z,53.63
2019-01-31T07:52:15.888Z,52.84
2019-01-31T07:52:47.321Z,52.44
2019-01-31T07:53:18.571Z,52.39
2019-01-31T07:53:49.812Z,52.59
2019-01-31T07:54:21.049Z,52.94
2019-01-31T07:54:52.327Z,53.49
2019-01-31T07:55:23.565Z,54.07
2019-01-31T07:55:54.805Z,54.62
2019-01-31T07:56:26.070Z,55.16
2019-01-31T07:56:57.296Z,55.64
2019-01-31T07:57:28.756Z,56.39
2019-01-31T07:58:00.679Z,57.07
2019-01-31T07:58:31.982Z,57.75
2019-01-31T07:59:03.233Z,58.35
2019-01-31T07:59:34.397Z,58.98
2019-01-31T08:00:23.584Z,59.46
2019-01-31T08:00:54.739Z,60.38
2019-01-31T08:01:25.966Z,61.79
2019-01-31T08:01:57.166Z,62.06
2019-01-31T08:02:28.814Z,61.87
2019-01-31T08:03:00.078Z,61.39
2019-01-31T08:03:31.850Z,60.70
2019-01-31T08:04:03.418Z,59.93
2019-01-31T08:04:34.677Z,59.15
2019-01-31T08:05:10.956Z,58.37
2019-01-31T08:05:42.334Z,57.71
2019-01-31T08:06:13.585Z,56.82
2019-01-31T08:06:44.867Z,56.12
2019-01-31T08:07:16.121Z,55.52
2019-01-31T08:07:48.150Z,54.87
2019-01-31T08:08:19.408Z,54.31
2019-01-31T08:08:50.687Z,53.34
2019-01-31T08:09:21.868Z,52.56
2019-01-31T08:09:56.004Z,52.31
2019-01-31T08:10:34.183Z,52.28
2019-01-31T08:11:05.490Z,52.54
2019-01-31T08:11:36.673Z,53.03
2019-01-31T08:12:07.901Z,53.55
2019-01-31T08:12:39.073Z,53.97
2019-01-31T08:13:10.302Z,54.61
2019-01-31T08:13:41.459Z,55.20
2019-01-31T08:14:12.679Z,55.78
2019-01-31T08:14:43.830Z,56.33
2019-01-31T08:15:17.566Z,56.94
2019-01-31T08:15:49.721Z,57.52
2019-01-31T08:16:20.932Z,58.23
2019-01-31T08:16:52.123Z,58.86
2019-01-31T08:17:23.373Z,59.45
2019-01-31T08:17:54.642Z,60.23
2019-01-31T08:18:26.901Z,61.30
2019-01-31T08:18:58.158Z,61.88
2019-01-31T08:19:29.447Z,61.86
2019-01-31T08:20:00.641Z,61.53
2019-01-31T08:20:31.994Z,60.92
2019-01-31T08:21:03.162Z,60.14
2019-01-31T08:21:34.388Z,59.29
2019-01-31T08:22:05.598Z,58.50
2019-01-31T08:22:36.788Z,57.66
2019-01-31T08:23:08.010Z,56.92
2019-01-31T08:23:39.261Z,56.30
2019-01-31T08:24:10.455Z,55.64
2019-01-31T08:24:41.649Z,55.00
2019-01-31T08:25:20.599Z,54.38